Time;durP1;ratioP1;P1;durP2;ratioP2;P2;SDS_P1;SDS_P2;PMS_P1;PMS_P2;Temp;Humidity;BMP_temperature;BMP_pressure;BME280_temperature;BME280_humidity;BME280_pressure;Samples;Min_cycle;Max_cycle;Signal;HPM_P1;HPM_P2
2022/10/27 00:00:19;;;;;;;;;;;12.10;99.90;;;;;;5035556;28;20127;-76
2022/10/27 00:02:45;;;;;;;33.30;21.02;;;12.10;99.90;;;;;;5052976;28;19958;-77
2022/10/27 00:05:11;;;;;;;40.03;25.95;;;12.10;99.90;;;;;;5052915;28;20025;-77
2022/10/27 00:07:37;;;;;;;42.97;25.83;;;12.10;99.90;;;;;;5035099;28;20029;-77
2022/10/27 00:10:05;;;;;;;39.13;23.67;;;12.20;99.90;;;;;;5035066;28;20029;-77
2022/10/27 00:12:32;;;;;;;33.00;21.17;;;12.20;99.90;;;;;;5034824;28;20103;-78
2022/10/27 00:14:57;;;;;;;33.00;20.60;;;12.20;99.90;;;;;;5052797;28;20049;-77
2022/10/27 00:17:23;;;;;;;;;;;12.20;99.90;;;;;;5053620;28;20079;-78
2022/10/27 00:19:49;;;;;;;29.25;19.38;;;12.20;99.90;;;;;;5035011;28;19979;-77
2022/10/27 00:22:14;;;;;;;;;;;12.10;99.90;;;;;;5035458;28;20148;-77
2022/10/27 00:24:40;;;;;;;31.58;20.65;;;12.00;99.90;;;;;;5052694;28;20415;-77
2022/10/27 00:27:07;;;;;;;27.38;19.65;;;12.00;99.90;;;;;;5052786;28;20032;-77
2022/10/27 00:29:33;;;;;;;31.13;19.77;;;11.90;99.90;;;;;;5053107;28;20493;-77
2022/10/27 00:31:59;;;;;;;;;;;11.90;99.90;;;;;;5035580;28;20695;-77
2022/10/27 00:34:24;;;;;;;24.98;17.05;;;11.90;99.90;;;;;;5034739;28;20022;-77
2022/10/27 00:36:50;;;;;;;;;;;11.80;99.90;;;;;;5053588;28;20101;-77
2022/10/27 00:39:15;;;;;;;24.60;17.40;;;11.70;99.90;;;;;;5052758;28;19905;-77
2022/10/27 00:41:42;;;;;;;23.33;16.55;;;11.80;99.90;;;;;;5052989;28;20039;-77
2022/10/27 00:44:41;;;;;;;30.63;19.20;;;11.80;99.90;;;;;;5053477;28;20025;-78
2022/10/27 00:47:25;;;;;;;25.50;17.92;;;11.80;99.90;;;;;;5052736;28;20017;-78
2022/10/27 00:50:05;;;;;;;26.17;17.02;;;11.80;99.90;;;;;;5033819;28;20060;-77
2022/10/27 00:52:35;;;;;;;29.17;18.13;;;11.80;99.90;;;;;;5034303;28;20036;-77
2022/10/27 00:55:12;;;;;;;27.05;17.00;;;11.80;99.90;;;;;;5035164;28;20500;-78
2022/10/27 00:57:37;;;;;;;;;;;11.70;99.90;;;;;;5034726;28;20045;-77
2022/10/27 01:00:05;;;;;;;33.40;18.20;;;11.70;99.90;;;;;;5052158;28;19908;-77
2022/10/27 01:02:32;;;;;;;29.90;16.88;;;11.70;99.90;;;;;;5051677;28;20037;-77
2022/10/27 01:05:19;;;;;;;23.67;15.93;;;11.60;99.90;;;;;;5034634;28;20511;-78
2022/10/27 01:07:47;;;;;;;26.20;14.95;;;11.60;99.90;;;;;;5052815;28;20092;-77
2022/10/27 01:10:13;;;;;;;27.15;15.63;;;11.60;99.90;;;;;;5053080;28;20374;-77
2022/10/27 01:12:40;;;;;;;24.90;15.68;;;11.60;99.90;;;;;;5035063;28;20115;-77
2022/10/27 01:15:06;;;;;;;30.00;16.25;;;11.60;99.90;;;;;;5052427;28;20037;-77
2022/10/27 01:17:44;;;;;;;26.90;13.68;;;11.50;99.90;;;;;;5052056;28;20064;-77
2022/10/27 01:20:44;;;;;;;24.45;13.93;;;11.40;99.90;;;;;;5051998;28;20136;-77
2022/10/27 01:23:21;;;;;;;20.23;10.82;;;11.40;99.90;;;;;;5033824;28;20041;-77
2022/10/27 01:26:12;;;;;;;17.17;10.82;;;11.30;99.90;;;;;;5033637;28;20025;-78
2022/10/27 01:29:07;;;;;;;20.42;12.85;;;11.30;99.90;;;;;;5033412;28;20413;-77
2022/10/27 01:32:04;;;;;;;19.60;11.38;;;11.20;99.90;;;;;;5034129;28;20109;-76
2022/10/27 01:34:43;;;;;;;19.35;11.05;;;11.20;99.90;;;;;;5033560;28;20021;-76
2022/10/27 01:37:20;;;;;;;15.52;10.30;;;11.10;99.90;;;;;;5033121;28;20266;-76
2022/10/27 01:40:12;;;;;;;;;;;11.10;99.90;;;;;;5032828;28;20029;-77
2022/10/27 01:42:48;;;;;;;18.42;9.45;;;11.00;99.90;;;;;;5019201;28;19909;-76
2022/10/27 01:45:15;;;;;;;;;;;10.90;99.90;;;;;;5050816;28;20033;-77
2022/10/27 01:47:41;;;;;;;19.52;11.73;;;10.90;99.90;;;;;;5032249;28;19905;-76
2022/10/27 01:50:07;;;;;;;;;;;10.90;99.90;;;;;;5050557;28;20036;-77
2022/10/27 01:52:48;;;;;;;19.88;11.05;;;10.90;99.90;;;;;;5031839;28;19951;-78
2022/10/27 01:55:25;;;;;;;21.38;12.23;;;10.90;99.90;;;;;;5050048;28;20025;-77
2022/10/27 01:58:14;;;;;;;17.58;11.52;;;10.90;99.90;;;;;;5027775;28;20645;-77
2022/10/27 02:01:13;;;;;;;28.00;16.38;;;10.90;99.90;;;;;;5032000;28;20025;-77
2022/10/27 02:04:00;;;;;;;23.60;15.35;;;10.90;99.90;;;;;;5049193;28;20098;-77
2022/10/27 02:06:28;;;;;;;;;;;10.90;99.90;;;;;;5032372;28;20025;-77
2022/10/27 02:09:10;;;;;;;23.40;14.45;;;10.90;99.90;;;;;;5031944;28;19905;-77
2022/10/27 02:11:39;;;;;;;28.35;15.23;;;10.90;99.90;;;;;;5049433;28;20509;-77
2022/10/27 02:14:06;;;;;;;21.20;14.57;;;10.90;99.90;;;;;;5049387;28;20029;-76
2022/10/27 02:16:37;;;;;;;30.70;15.25;;;10.90;99.90;;;;;;5031969;28;20515;-77
2022/10/27 02:19:17;;;;;;;23.27;14.90;;;10.90;99.90;;;;;;5031899;28;20082;-77
2022/10/27 02:21:45;;;;;;;22.17;13.07;;;10.90;99.90;;;;;;5027361;28;20021;-77
2022/10/27 02:24:11;;;;;;;19.58;13.48;;;11.00;99.90;;;;;;5031722;28;20455;-77
2022/10/27 02:26:37;;;;;;;;;;;11.00;99.90;;;;;;5049913;28;20100;-77
2022/10/27 02:29:07;;;;;;;21.27;13.30;;;11.00;99.90;;;;;;5033338;28;19905;-77
2022/10/27 02:31:37;;;;;;;23.60;14.02;;;11.00;99.90;;;;;;5049775;28;20025;-77
2022/10/27 02:34:04;;;;;;;26.38;15.18;;;11.00;99.90;;;;;;5031827;28;20029;-77
2022/10/27 02:36:30;;;;;;;29.73;17.48;;;11.10;99.90;;;;;;5031468;28;20509;-75
2022/10/27 02:38:56;;;;;;;32.05;19.15;;;11.10;99.90;;;;;;5032104;28;20037;-77
2022/10/27 02:41:22;;;;;;;;;;;11.10;99.90;;;;;;5031653;28;20037;-77
2022/10/27 02:43:47;;;;;;;22.52;15.05;;;11.20;99.90;;;;;;5031851;28;19915;-77
2022/10/27 02:46:13;;;;;;;;;;;11.10;99.90;;;;;;5049612;28;20013;-77
2022/10/27 02:48:38;;;;;;;26.17;17.65;;;11.10;99.90;;;;;;5031547;28;19923;-76
2022/10/27 02:51:04;;;;;;;;;;;11.20;99.90;;;;;;5032403;28;20040;-76
2022/10/27 02:53:29;;;;;;;33.55;17.38;;;11.20;99.90;;;;;;5031973;28;20357;-78
2022/10/27 02:55:55;;;;;;;;;;;11.20;99.90;;;;;;5032402;28;20047;-78
2022/10/27 02:58:20;;;;;;;34.88;19.20;;;11.20;99.90;;;;;;5031787;28;19991;-77
2022/10/27 03:00:46;;;;;;;;;;;11.10;99.90;;;;;;5048866;28;20028;-77
2022/10/27 03:03:12;;;;;;;28.52;16.98;;;11.10;99.90;;;;;;5031407;28;19962;-77
2022/10/27 03:05:37;;;;;;;;;;;11.10;99.90;;;;;;5032070;28;20025;-77
2022/10/27 03:08:03;;;;;;;34.67;18.33;;;11.00;99.90;;;;;;5049867;28;19915;-77
2022/10/27 03:10:29;;;;;;;;;;;10.90;99.90;;;;;;5032085;28;20088;-78
2022/10/27 03:12:54;;;;;;;40.58;20.70;;;10.90;99.90;;;;;;5049614;28;19909;-78
2022/10/27 03:15:20;;;;;;;;;;;10.90;99.90;;;;;;5053817;28;20029;-77
2022/10/27 03:17:47;;;;;;;32.35;19.30;;;10.80;99.90;;;;;;5053599;28;19916;-77
2022/10/27 03:20:14;;;;;;;31.30;18.27;;;10.70;99.90;;;;;;5035168;28;20082;-77
2022/10/27 03:22:40;;;;;;;27.70;17.85;;;10.70;99.90;;;;;;5035514;28;20044;-78
2022/10/27 03:25:07;;;;;;;33.80;20.77;;;10.70;99.90;;;;;;5035402;28;20040;-78
2022/10/27 03:27:33;;;;;;;28.50;17.50;;;10.70;99.90;;;;;;5035486;28;20111;-78
2022/10/27 03:29:59;;;;;;;;;;;10.70;99.90;;;;;;5053399;28;20508;-77
2022/10/27 03:32:24;;;;;;;25.58;15.30;;;10.60;99.90;;;;;;5035365;28;19909;-77
2022/10/27 03:34:50;;;;;;;;;;;10.70;99.90;;;;;;5035923;28;20025;-77
2022/10/27 03:37:15;;;;;;;25.40;15.13;;;10.70;99.90;;;;;;5035670;28;19923;-78
2022/10/27 03:39:41;;;;;;;;;;;10.70;99.90;;;;;;5035768;28;20461;-78
2022/10/27 03:42:06;;;;;;;33.70;16.08;;;10.80;99.90;;;;;;5053661;28;20011;-78
2022/10/27 03:44:32;;;;;;;;;;;10.80;99.90;;;;;;5037500;28;20478;-77
2022/10/27 03:46:57;;;;;;;26.02;16.90;;;10.90;99.90;;;;;;5035552;28;20012;-78
2022/10/27 03:49:23;;;;;;;;;;;10.90;99.90;;;;;;5054073;28;20029;-77
2022/10/27 03:51:48;;;;;;;31.08;18.55;;;11.00;99.90;;;;;;5035960;28;20046;-77
2022/10/27 03:54:14;;;;;;;;;;;11.00;99.90;;;;;;5036796;28;20646;-77
2022/10/27 03:56:39;;;;;;;29.40;17.88;;;11.00;99.90;;;;;;5035276;28;19915;-77
2022/10/27 03:59:05;;;;;;;;;;;11.10;99.90;;;;;;5035014;28;20025;-76
2022/10/27 04:01:33;;;;;;;24.38;15.70;;;11.10;99.90;;;;;;5034624;28;19909;-77
2022/10/27 04:03:59;;;;;;;21.75;14.95;;;11.10;99.90;;;;;;5034160;28;20036;-77
2022/10/27 04:06:24;;;;;;;;;;;11.10;99.90;;;;;;5034446;28;20025;-76
2022/10/27 04:08:50;;;;;;;24.00;14.13;;;11.20;99.90;;;;;;5034471;28;19916;-77
2022/10/27 04:11:15;;;;;;;;;;;11.20;99.90;;;;;;5034246;28;20410;-77
2022/10/27 04:13:41;;;;;;;25.52;16.48;;;11.20;99.90;;;;;;5052378;28;20327;-77
2022/10/27 04:16:07;;;;;;;;;;;11.20;99.90;;;;;;5034787;28;20124;-77
2022/10/27 04:18:32;;;;;;;29.40;17.95;;;11.20;99.90;;;;;;5034022;28;19913;-77
2022/10/27 04:21:02;;;;;;;;;;;11.20;99.90;;;;;;5034949;28;20469;-77
2022/10/27 04:23:28;;;;;;;28.27;15.55;;;11.20;99.90;;;;;;5034282;28;19909;-77
2022/10/27 04:25:54;;;;;;;24.67;16.10;;;11.20;99.90;;;;;;5033898;28;20090;-76
2022/10/27 04:28:19;;;;;;;;;;;11.20;99.90;;;;;;5052220;28;20489;-77
2022/10/27 04:30:45;;;;;;;22.98;15.63;;;11.30;99.90;;;;;;5052228;28;19904;-77
2022/10/27 04:33:10;;;;;;;;;;;11.30;99.90;;;;;;5034686;28;20127;-77
2022/10/27 04:35:36;;;;;;;20.92;14.95;;;11.30;99.90;;;;;;5034056;28;19905;-77
2022/10/27 04:38:02;;;;;;;24.15;15.13;;;11.30;99.90;;;;;;5033978;28;20091;-77
2022/10/27 04:40:27;;;;;;;;;;;11.40;99.90;;;;;;5034240;28;20021;-77
2022/10/27 04:42:53;;;;;;;24.17;15.23;;;11.40;99.90;;;;;;5034102;28;20285;-77
2022/10/27 04:45:19;;;;;;;26.05;16.63;;;11.40;99.90;;;;;;5033830;28;20043;-78
2022/10/27 04:47:44;;;;;;;;;;;11.40;99.90;;;;;;5052566;28;20544;-77
2022/10/27 04:50:10;;;;;;;24.85;17.42;;;11.40;99.90;;;;;;5034292;28;19943;-77
2022/10/27 04:52:36;;;;;;;49.45;26.92;;;11.40;99.90;;;;;;5034181;28;20029;-77
2022/10/27 04:55:02;;;;;;;;;;;11.50;99.90;;;;;;5052362;28;20029;-77
2022/10/27 04:57:27;;;;;;;46.10;26.67;;;11.40;99.90;;;;;;5034240;28;19912;-77
2022/10/27 04:59:53;;;;;;;;;;;11.30;99.90;;;;;;5034491;28;20409;-77
2022/10/27 05:02:18;;;;;;;38.03;24.02;;;11.20;99.90;;;;;;5034159;28;20293;-76
2022/10/27 05:04:44;;;;;;;45.63;24.80;;;11.30;99.90;;;;;;5033758;28;20025;-77
2022/10/27 05:07:09;;;;;;;;;;;11.30;99.90;;;;;;5052200;28;20036;-77
2022/10/27 05:09:35;;;;;;;46.47;26.88;;;11.30;99.90;;;;;;5034081;28;20439;-77
2022/10/27 05:12:01;;;;;;;;;;;11.30;99.90;;;;;;5051971;28;20059;-78
2022/10/27 05:14:26;;;;;;;59.13;27.90;;;11.30;99.90;;;;;;5051491;28;19909;-77
2022/10/27 05:16:52;;;;;;;;;;;11.30;99.90;;;;;;5052196;28;20029;-77
2022/10/27 05:19:17;;;;;;;47.70;23.77;;;11.40;99.90;;;;;;5033682;28;19963;-77
2022/10/27 05:21:43;;;;;;;;;;;11.40;99.90;;;;;;5052195;28;20103;-77
2022/10/27 05:24:08;;;;;;;44.65;24.38;;;11.40;99.90;;;;;;5052063;28;19920;-77
2022/10/27 05:26:34;;;;;;;;;;;11.40;99.90;;;;;;5051622;28;20025;-77
2022/10/27 05:29:00;;;;;;;48.92;23.85;;;11.40;99.90;;;;;;5033645;28;19908;-76
2022/10/27 05:31:25;;;;;;;42.53;23.38;;;11.40;99.90;;;;;;5051276;28;20033;-77
2022/10/27 05:33:51;;;;;;;;;;;11.50;99.90;;;;;;5034216;28;20485;-77
2022/10/27 05:36:16;;;;;;;45.97;21.02;;;11.50;99.90;;;;;;5032916;28;19939;-77
2022/10/27 05:38:44;;;;;;;;;;;11.50;99.90;;;;;;5051637;28;20055;-77
2022/10/27 05:41:09;;;;;;;;;;;11.50;99.90;;;;;;5033537;28;19963;-77
2022/10/27 05:43:35;;;;;;;28.80;15.15;;;11.50;99.90;;;;;;5051578;28;19939;-77
2022/10/27 05:46:01;;;;;;;33.75;14.07;;;11.50;99.90;;;;;;5051235;28;20059;-77
2022/10/27 05:48:26;;;;;;;;;;;11.50;99.90;;;;;;5033696;28;20123;-77
2022/10/27 05:50:53;;;;;;;26.60;12.13;;;11.50;99.90;;;;;;5051793;28;19909;-76
2022/10/27 05:53:20;;;;;;;29.45;12.57;;;11.50;99.90;;;;;;5033367;28;20028;-77
2022/10/27 05:55:45;;;;;;;32.10;12.80;;;11.60;99.90;;;;;;5033615;28;20033;-77
2022/10/27 05:58:11;;;;;;;;;;;11.60;99.90;;;;;;5052028;28;20443;-77
2022/10/27 06:00:37;;;;;;;35.15;14.85;;;11.60;99.90;;;;;;5050945;28;19905;-77
2022/10/27 06:03:06;;;;;;;39.58;20.90;;;11.60;99.90;;;;;;5032713;28;20560;-77
2022/10/27 06:05:35;;;;;;;45.28;21.27;;;11.60;99.90;;;;;;5032881;28;20035;-77
2022/10/27 06:08:01;;;;;;;32.92;16.15;;;11.60;99.90;;;;;;5051344;28;20033;-74
2022/10/27 06:10:28;;;;;;;;;;;11.60;99.90;;;;;;5052403;28;20013;-75
2022/10/27 06:13:01;;;;;;;;;;;11.60;99.90;;;;;;5053597;28;19916;-76
2022/10/27 06:15:27;;;;;;;40.83;16.80;;;11.60;99.90;;;;;;5051985;28;20055;-75
2022/10/27 06:17:53;;;;;;;41.97;17.42;;;11.70;99.90;;;;;;5032230;28;20569;-75
2022/10/27 06:20:18;;;;;;;;;;;11.70;99.90;;;;;;5033004;28;20204;-75
2022/10/27 06:22:47;;;;;;;54.38;19.98;;;11.80;99.90;;;;;;5032098;28;19909;-75
2022/10/27 06:25:13;;;;;;;59.22;19.63;;;11.80;99.90;;;;;;5031607;28;20021;-75
2022/10/27 06:27:38;;;;;;;;;;;11.80;99.90;;;;;;5032460;28;20539;-75
2022/10/27 06:30:04;;;;;;;44.72;19.17;;;11.80;99.90;;;;;;5052460;28;19908;-75
2022/10/27 06:32:30;;;;;;;46.35;20.95;;;11.90;99.90;;;;;;5064735;28;20392;-75
2022/10/27 06:34:55;;;;;;;;;;;11.90;99.90;;;;;;5052449;28;20481;-75
2022/10/27 06:37:21;;;;;;;36.13;19.08;;;12.00;99.90;;;;;;5068980;28;20646;-75
2022/10/27 06:39:47;;;;;;;36.28;17.73;;;12.10;99.90;;;;;;5051391;28;20029;-75
2022/10/27 06:42:12;;;;;;;;;;;12.20;99.90;;;;;;5051941;28;20043;-75
2022/10/27 06:44:38;;;;;;;39.10;19.23;;;12.20;99.90;;;;;;5051529;28;20015;-75
2022/10/27 06:47:03;;;;;;;;;;;12.40;99.90;;;;;;5052167;28;20064;-75
2022/10/27 06:49:29;;;;;;;36.60;18.20;;;12.40;99.90;;;;;;5054601;28;19919;-76
2022/10/27 06:51:54;;;;;;;;;;;12.50;99.90;;;;;;5074307;28;20454;-75
2022/10/27 06:54:20;;;;;;;37.15;18.42;;;12.60;99.90;;;;;;5074293;28;19915;-75
2022/10/27 06:56:46;;;;;;;;;;;12.60;99.90;;;;;;5056358;28;20058;-76
2022/10/27 06:59:11;;;;;;;27.65;17.92;;;12.60;99.90;;;;;;5073599;28;20455;-75
2022/10/27 07:01:37;;;;;;;;;;;12.70;99.90;;;;;;5056086;28;20124;-75
2022/10/27 07:04:02;;;;;;;32.72;19.40;;;12.80;99.90;;;;;;5055510;28;19922;-75
2022/10/27 07:06:28;;;;;;;;;;;12.80;99.90;;;;;;5074381;28;20609;-75
2022/10/27 07:08:54;;;;;;;32.97;19.10;;;12.90;99.90;;;;;;5055661;28;19905;-75
2022/10/27 07:11:20;;;;;;;26.02;17.55;;;12.90;99.90;;;;;;5074180;28;20064;-75
2022/10/27 07:13:45;;;;;;;;;;;12.90;99.90;;;;;;5074556;28;20036;-75
2022/10/27 07:16:11;;;;;;;28.83;17.48;;;12.90;99.90;;;;;;5055540;28;19908;-75
2022/10/27 07:18:37;;;;;;;29.38;19.15;;;12.90;99.90;;;;;;5073785;28;20028;-75
2022/10/27 07:21:04;;;;;;;34.75;19.83;;;12.90;99.90;;;;;;5073799;28;20107;-76
2022/10/27 07:23:29;;;;;;;26.45;19.25;;;12.90;99.90;;;;;;5055483;28;20043;-75
2022/10/27 07:25:55;;;;;;;;;;;12.80;99.90;;;;;;5056699;28;20029;-76
2022/10/27 07:28:21;;;;;;;41.67;19.98;;;12.70;99.90;;;;;;5073688;28;19929;-76
2022/10/27 07:30:47;;;;;;;27.58;18.77;;;12.70;99.90;;;;;;5073567;28;20511;-76
2022/10/27 07:33:12;;;;;;;31.60;18.90;;;12.60;99.90;;;;;;5073870;28;20020;-75
2022/10/27 07:35:38;;;;;;;;;;;12.60;99.90;;;;;;5074022;28;20032;-75
2022/10/27 07:38:05;;;;;;;30.65;19.05;;;12.60;99.90;;;;;;5056022;28;19919;-75
2022/10/27 07:40:31;;;;;;;31.42;18.08;;;12.60;99.90;;;;;;5074201;28;20404;-76
2022/10/27 07:42:58;;;;;;;;;;;12.70;99.90;;;;;;5074322;28;20595;-76
2022/10/27 07:45:25;;;;;;;;;;;12.70;99.90;;;;;;5073752;28;19909;-75
2022/10/27 07:47:55;;;;;;;33.50;19.90;;;12.70;99.90;;;;;;5073703;28;19904;-75
2022/10/27 07:50:23;;;;;;;26.75;18.90;;;12.70;99.90;;;;;;5055910;28;20055;-75
2022/10/27 07:52:51;;;;;;;48.58;24.08;;;12.70;99.90;;;;;;5073563;28;20082;-75
2022/10/27 07:55:19;;;;;;;60.92;34.45;;;12.70;99.90;;;;;;5055732;28;20093;-75
2022/10/27 07:57:45;;;;;;;67.20;37.47;;;12.70;99.90;;;;;;5055818;28;20040;-75
2022/10/27 08:00:16;;;;;;;51.88;30.05;;;12.70;99.90;;;;;;5073101;28;20029;-75
2022/10/27 08:02:42;;;;;;;51.67;30.63;;;12.70;99.90;;;;;;5073912;28;20411;-75
2022/10/27 08:05:09;;;;;;;45.80;28.45;;;12.70;99.90;;;;;;5055620;28;20484;-75
2022/10/27 08:07:35;;;;;;;39.33;24.98;;;12.70;99.90;;;;;;5073688;28;20037;-75
2022/10/27 08:10:00;;;;;;;;;;;12.70;99.90;;;;;;5074315;28;20021;-75
2022/10/27 08:12:26;;;;;;;34.00;22.38;;;12.70;99.90;;;;;;5073380;28;20498;-75
2022/10/27 08:14:52;;;;;;;35.78;22.45;;;12.80;99.90;;;;;;5073748;28;20032;-75
2022/10/27 08:17:18;;;;;;;37.53;21.67;;;12.70;99.90;;;;;;5073636;28;20028;-76
2022/10/27 08:19:43;;;;;;;30.40;21.67;;;12.90;99.90;;;;;;5073307;28;20028;-75
2022/10/27 08:22:09;;;;;;;;;;;12.80;99.90;;;;;;5056269;28;20382;-75
2022/10/27 08:24:34;;;;;;;33.25;22.98;;;12.80;99.90;;;;;;5073402;28;19915;-75
2022/10/27 08:27:00;;;;;;;;;;;12.80;99.90;;;;;;5055670;28;20029;-75
2022/10/27 08:29:25;;;;;;;30.13;18.40;;;12.80;99.90;;;;;;5055654;28;19908;-76
2022/10/27 08:31:55;;;;;;;29.98;20.63;;;12.80;99.90;;;;;;5056029;28;20039;-76
2022/10/27 08:34:20;;;;;;;30.30;19.80;;;12.90;99.90;;;;;;5055978;28;20086;-75
2022/10/27 08:36:46;;;;;;;;;;;12.90;99.90;;;;;;5072533;28;20033;-76
2022/10/27 08:39:12;;;;;;;31.50;20.45;;;12.90;99.90;;;;;;5071546;28;19908;-75
2022/10/27 08:41:49;;;;;;;30.65;19.77;;;12.90;99.90;;;;;;5071887;28;20088;-75
2022/10/27 08:44:14;;;;;;;31.50;21.42;;;12.90;99.90;;;;;;5071768;28;20082;-75
2022/10/27 08:46:50;;;;;;;;;;;13.00;99.90;;;;;;5072213;28;20489;-76
2022/10/27 08:49:39;;;;;;;33.45;23.80;;;13.00;99.90;;;;;;5054224;28;19960;-75
2022/10/27 08:52:10;;;;;;;36.30;29.45;;;13.10;99.90;;;;;;5071980;28;20733;-75
2022/10/27 08:54:36;;;;;;;38.70;24.33;;;13.00;99.90;;;;;;5053606;28;20060;-75
2022/10/27 08:57:03;;;;;;;27.67;19.48;;;13.10;99.90;;;;;;5071700;28;20024;-76
2022/10/27 08:59:30;;;;;;;27.55;18.70;;;13.10;99.90;;;;;;5054170;28;20124;-75
2022/10/27 09:02:21;;;;;;;29.15;19.55;;;13.10;99.90;;;;;;5071418;28;20021;-75
2022/10/27 09:05:21;;;;;;;32.92;21.13;;;13.10;99.90;;;;;;5053524;28;20075;-75
2022/10/27 09:07:56;;;;;;;36.13;21.08;;;13.10;99.90;;;;;;5071633;28;20111;-75
2022/10/27 09:10:36;;;;;;;27.08;19.45;;;13.00;99.90;;;;;;5071580;28;20029;-75
2022/10/27 09:13:39;;;;;;;30.02;21.05;;;13.00;99.90;;;;;;5030497;28;20037;-75
2022/10/27 09:16:11;;;;;;;31.70;21.88;;;13.00;99.90;;;;;;5030603;28;20410;-75
2022/10/27 09:18:42;;;;;;;39.38;22.08;;;13.00;99.90;;;;;;5031576;28;20045;-76
2022/10/27 09:21:15;;;;;;;35.05;21.90;;;13.00;99.90;;;;;;5031676;28;20751;-76
2022/10/27 09:23:50;;;;;;;32.28;22.60;;;13.00;99.90;;;;;;5030549;28;20037;-75
2022/10/27 09:26:19;;;;;;;34.53;23.58;;;13.10;99.90;;;;;;5030208;28;20029;-75
2022/10/27 09:28:53;;;;;;;39.50;24.83;;;13.10;99.90;;;;;;5031553;28;20033;-76
2022/10/27 09:31:29;;;;;;;34.47;22.40;;;13.10;99.90;;;;;;5031639;28;20109;-75
2022/10/27 09:34:02;;;;;;;34.30;22.02;;;13.10;99.90;;;;;;5030272;28;20025;-75
2022/10/27 09:36:28;;;;;;;34.47;22.45;;;13.10;99.90;;;;;;5030581;28;20064;-76
2022/10/27 09:38:53;;;;;;;;;;;13.10;99.90;;;;;;5032226;28;20068;-76
2022/10/27 09:41:19;;;;;;;35.15;22.70;;;13.10;99.90;;;;;;5031565;28;20024;-75
2022/10/27 09:43:47;;;;;;;36.75;24.38;;;13.10;99.90;;;;;;5030597;28;20025;-75
2022/10/27 09:46:29;;;;;;;40.58;28.65;;;13.10;99.90;;;;;;5030029;28;20071;-75
2022/10/27 09:48:59;;;;;;;36.10;23.48;;;13.20;99.90;;;;;;5029919;28;20056;-76
2022/10/27 09:51:32;;;;;;;33.58;24.40;;;13.20;99.90;;;;;;5029985;28;20025;-76
2022/10/27 09:53:59;;;;;;;34.90;23.88;;;13.20;99.90;;;;;;5031507;28;20029;-75
2022/10/27 09:56:26;;;;;;;32.47;21.38;;;13.20;99.90;;;;;;5029195;28;20029;-75
2022/10/27 09:59:03;;;;;;;34.03;22.83;;;13.20;99.90;;;;;;5029710;28;20042;-75
2022/10/27 10:01:48;;;;;;;36.08;22.25;;;13.20;99.90;;;;;;5029409;28;20046;-75
2022/10/27 10:04:41;;;;;;;36.40;23.45;;;13.30;99.90;;;;;;5029053;28;20033;-75
2022/10/27 10:07:26;;;;;;;39.70;24.48;;;13.20;99.90;;;;;;5029539;28;20208;-75
2022/10/27 10:10:01;;;;;;;36.40;24.05;;;13.20;99.90;;;;;;5030337;28;20033;-74
2022/10/27 10:12:27;;;;;;;40.10;24.00;;;13.20;99.90;;;;;;5048627;28;20068;-75
2022/10/27 10:15:22;;;;;;;37.60;21.70;;;13.30;99.90;;;;;;5070541;28;20043;-75
2022/10/27 10:17:56;;;;;;;34.05;23.60;;;13.30;99.90;;;;;;5039787;28;20042;-74
2022/10/27 10:20:35;;;;;;;39.53;23.35;;;13.30;99.90;;;;;;5069847;28;20063;-75
2022/10/27 10:23:03;;;;;;;36.03;21.80;;;13.40;99.90;;;;;;5052198;28;20032;-75
2022/10/27 10:25:40;;;;;;;33.33;20.63;;;13.40;99.90;;;;;;5052027;28;20412;-74
2022/10/27 10:28:06;;;;;;;35.50;21.85;;;13.40;99.90;;;;;;5052206;28;20056;-75
2022/10/27 10:30:36;;;;;;;;;;;13.40;99.90;;;;;;5069328;28;20072;-75
2022/10/27 10:33:05;;;;;;;38.88;21.52;;;13.50;99.90;;;;;;5070410;28;19958;-75
2022/10/27 10:35:47;;;;;;;37.15;21.58;;;13.50;99.90;;;;;;5069857;28;20021;-74
2022/10/27 10:38:22;;;;;;;40.40;25.52;;;13.70;99.90;;;;;;5051861;28;20051;-74
2022/10/27 10:41:16;;;;;;;31.40;19.05;;;13.70;99.90;;;;;;5052078;28;20584;-75
2022/10/27 10:43:43;;;;;;;28.13;18.15;;;13.80;99.90;;;;;;5070274;28;20086;-74
2022/10/27 10:46:37;;;;;;;29.65;20.77;;;13.80;99.90;;;;;;5052374;28;20108;-75
2022/10/27 10:49:03;;;;;;;34.47;18.20;;;13.90;99.90;;;;;;5068851;28;20029;-75
2022/10/27 10:51:29;;;;;;;;;;;13.90;99.90;;;;;;5053528;28;20523;-76
2022/10/27 10:54:12;;;;;;;33.72;20.73;;;13.90;99.90;;;;;;5052509;28;19908;-74
2022/10/27 10:56:38;;;;;;;29.27;19.00;;;13.90;99.90;;;;;;5069899;28;20531;-75
2022/10/27 10:59:17;;;;;;;30.60;18.38;;;14.00;99.90;;;;;;5069321;28;20032;-75
2022/10/27 11:02:12;;;;;;;33.78;21.77;;;14.00;99.90;;;;;;5069383;28;20037;-75
2022/10/27 11:04:43;;;;;;;30.83;19.20;;;14.00;99.90;;;;;;5051512;28;20024;-75
2022/10/27 11:07:22;;;;;;;29.23;18.35;;;14.00;99.90;;;;;;5052324;28;20028;-75
2022/10/27 11:09:50;;;;;;;28.75;20.27;;;14.00;99.90;;;;;;5070542;28;20052;-75
2022/10/27 11:12:25;;;;;;;31.77;20.83;;;14.00;99.90;;;;;;5051366;28;20554;-75
2022/10/27 11:14:52;;;;;;;30.10;19.58;;;13.90;99.90;;;;;;5069597;28;20033;-75
2022/10/27 11:17:19;;;;;;;29.77;20.25;;;13.90;99.90;;;;;;5069305;28;20036;-74
2022/10/27 11:19:45;;;;;;;34.03;20.25;;;13.90;99.90;;;;;;5069215;28;20031;-75
2022/10/27 11:22:17;;;;;;;30.98;21.98;;;13.90;99.90;;;;;;5051627;28;20515;-75
2022/10/27 11:24:52;;;;;;;31.45;20.70;;;14.00;99.90;;;;;;5069154;28;20561;-75
2022/10/27 11:28:10;;;;;;;30.40;20.70;;;13.80;99.90;;;;;;5051417;28;20051;-75
2022/10/27 11:30:40;;;;;;;32.38;21.77;;;13.70;99.90;;;;;;5007445;28;20100;-74
2022/10/27 11:33:31;;;;;;;29.70;18.38;;;13.70;99.90;;;;;;4991113;28;20037;-75
2022/10/27 11:36:07;;;;;;;28.73;19.70;;;13.70;99.90;;;;;;5035618;28;20032;-74
2022/10/27 11:38:37;;;;;;;29.00;19.60;;;13.80;99.90;;;;;;5054435;28;20082;-75
2022/10/27 11:41:12;;;;;;;28.05;18.63;;;13.80;99.90;;;;;;5055227;28;20028;-75
2022/10/27 11:43:54;;;;;;;24.98;16.90;;;13.80;99.90;;;;;;5054792;28;20119;-75
2022/10/27 11:46:28;;;;;;;24.50;16.77;;;14.00;99.90;;;;;;5054804;28;20462;-75
2022/10/27 11:49:02;;;;;;;30.20;21.10;;;14.00;99.90;;;;;;5072739;28;20071;-75
2022/10/27 11:51:45;;;;;;;28.23;19.08;;;14.10;99.90;;;;;;5055060;28;20036;-75
2022/10/27 11:54:11;;;;;;;29.02;18.98;;;14.10;99.90;;;;;;5054488;28;20024;-75
2022/10/27 11:57:23;;;;;;;27.80;19.65;;;14.10;99.90;;;;;;5054842;28;20082;-76
2022/10/27 12:00:13;;;;;;;31.67;18.38;;;14.00;99.90;;;;;;5010386;28;20084;-75
2022/10/27 12:02:44;;;;;;;23.60;17.48;;;14.10;99.90;;;;;;4994277;28;20494;-75
2022/10/27 12:05:36;;;;;;;28.05;19.38;;;14.10;99.90;;;;;;5038753;28;20060;-76
2022/10/27 12:08:47;;;;;;;23.10;16.27;;;14.00;99.90;;;;;;5050014;28;20458;-76
2022/10/27 12:11:22;;;;;;;30.15;19.42;;;14.10;99.90;;;;;;5050325;28;20053;-76
2022/10/27 12:14:09;;;;;;;35.63;21.23;;;14.10;99.90;;;;;;5072959;28;20024;-76
2022/10/27 12:16:51;;;;;;;27.42;19.40;;;14.00;99.90;;;;;;5055240;28;20082;-75
2022/10/27 12:19:32;;;;;;;29.17;17.70;;;14.00;99.90;;;;;;5072763;28;20040;-75
2022/10/27 12:22:12;;;;;;;33.55;21.25;;;14.00;99.90;;;;;;5054361;28;20504;-76
2022/10/27 12:25:01;;;;;;;25.90;18.40;;;14.10;99.90;;;;;;5072861;28;20025;-76
2022/10/27 12:27:35;;;;;;;31.95;19.52;;;14.10;99.90;;;;;;5072913;28;20086;-76
2022/10/27 12:30:11;;;;;;;34.03;19.83;;;14.10;99.90;;;;;;5072893;28;20093;-75
2022/10/27 12:32:39;;;;;;;28.80;19.30;;;14.10;99.90;;;;;;5072965;28;20032;-76
2022/10/27 12:35:04;;;;;;;28.80;19.55;;;14.10;99.90;;;;;;5072717;28;20035;-75
2022/10/27 12:37:55;;;;;;;28.00;18.45;;;14.10;99.90;;;;;;5055245;28;20104;-75
2022/10/27 12:41:02;;;;;;;32.08;20.67;;;14.20;99.90;;;;;;5041442;28;20053;-75
2022/10/27 12:43:55;;;;;;;31.08;21.58;;;14.10;99.90;;;;;;4993742;28;20025;-76
2022/10/27 12:46:45;;;;;;;31.33;21.15;;;14.10;99.90;;;;;;5051868;28;20496;-75
2022/10/27 12:49:29;;;;;;;26.88;18.90;;;14.00;99.90;;;;;;5054703;28;20025;-76
2022/10/27 12:52:04;;;;;;;35.28;22.98;;;14.00;99.90;;;;;;5072380;28;20025;-76
2022/10/27 12:54:32;;;;;;;38.92;24.75;;;14.00;99.90;;;;;;5054709;28;20025;-76
2022/10/27 12:57:19;;;;;;;35.80;21.60;;;13.90;99.90;;;;;;5072223;28;20037;-75
2022/10/27 12:59:56;;;;;;;32.83;21.45;;;13.80;99.90;;;;;;5072770;28;20039;-75
2022/10/27 13:02:33;;;;;;;34.60;21.00;;;13.70;99.90;;;;;;5054318;28;20025;-76
2022/10/27 13:05:30;;;;;;;39.45;22.98;;;13.60;99.90;;;;;;5050080;28;20037;-76
2022/10/27 13:08:16;;;;;;;38.10;24.87;;;13.60;99.90;;;;;;5073908;28;20060;-76